createdAt,value
2018-09-19T00:00:42.656Z,100261.51
2018-09-19T00:03:10.807Z,100265.87
2018-09-19T00:05:38.884Z,100265.41
2018-09-19T00:08:07.232Z,100261.57
2018-09-19T00:10:37.138Z,100270.29
2018-09-19T00:13:05.584Z,100265.88
2018-09-19T00:15:34.678Z,100276.30
2018-09-19T00:18:03.057Z,100272.86
2018-09-19T00:20:32.842Z,100269.84
2018-09-19T00:23:00.946Z,100273.27
2018-09-19T00:25:29.087Z,100271.52
2018-09-19T00:27:57.844Z,100273.74
2018-09-19T00:30:26.462Z,100269.95
2018-09-19T00:32:54.584Z,100263.47
2018-09-19T00:35:22.656Z,100265.19
2018-09-19T00:37:51.298Z,100265.65
2018-09-19T00:40:22.221Z,100260.87
2018-09-19T00:42:52.240Z,100261.72
2018-09-19T00:45:23.503Z,100266.04
2018-09-19T00:47:51.623Z,100266.06
2018-09-19T00:50:19.691Z,100267.37
2018-09-19T00:52:47.817Z,100271.20
2018-09-19T00:55:16.744Z,100280.36
2018-09-19T00:57:44.910Z,100272.55
2018-09-19T01:00:12.995Z,100271.26
2018-09-19T01:02:41.070Z,100274.27
2018-09-19T01:05:09.142Z,100278.17
2018-09-19T01:07:37.222Z,100278.16
2018-09-19T01:10:05.379Z,100281.66
2018-09-19T01:12:33.506Z,100281.20
2018-09-19T01:15:01.618Z,100279.48
2018-09-19T01:17:29.856Z,100281.63
2018-09-19T01:19:58.290Z,100284.66
2018-09-19T01:22:26.502Z,100289.86
2018-09-19T01:24:56.054Z,100295.06
2018-09-19T01:27:24.200Z,100296.36
2018-09-19T01:29:52.760Z,100289.45
2018-09-19T01:32:22.230Z,100289.02
2018-09-19T01:34:50.397Z,100290.74
2018-09-19T01:37:18.395Z,100292.02
2018-09-19T01:39:46.513Z,100295.50
2018-09-19T01:42:14.617Z,100295.07
2018-09-19T01:44:42.786Z,100294.61
2018-09-19T01:47:12.447Z,100289.88
2018-09-19T01:49:41.122Z,100292.45
2018-09-19T01:52:09.183Z,100297.20
2018-09-19T01:54:37.323Z,100293.77
2018-09-19T01:57:05.354Z,100298.07
2018-09-19T01:59:33.480Z,100301.98
2018-09-19T02:02:01.580Z,100307.60
2018-09-19T02:04:30.425Z,100311.51
2018-09-19T02:07:00.844Z,100313.21
2018-09-19T02:09:28.961Z,100311.48
2018-09-19T02:11:57.359Z,100314.52
2018-09-19T02:14:25.447Z,100317.95
2018-09-19T02:16:54.162Z,100321.42
2018-09-19T02:19:23.210Z,100332.65
2018-09-19T02:21:51.490Z,100330.06
2018-09-19T02:24:19.605Z,100329.63
2018-09-19T02:26:47.718Z,100330.06
2018-09-19T02:29:15.824Z,100325.30
2018-09-19T02:31:43.891Z,100335.68
2018-09-19T02:34:12.218Z,100332.67
2018-09-19T02:36:40.980Z,100334.83
2018-09-19T02:39:10.969Z,100332.20
2018-09-19T02:41:39.087Z,100331.71
2018-09-19T02:44:08.688Z,100330.48
2018-09-19T02:46:36.870Z,100336.52
2018-09-19T02:49:05.044Z,100341.24
2018-09-19T02:51:35.706Z,100343.44
2018-09-19T02:54:03.805Z,100342.12
2018-09-19T02:56:31.911Z,100346.39
2018-09-19T02:59:02.202Z,100351.61
2018-09-19T03:01:31.470Z,100350.70
2018-09-19T03:04:01.819Z,100342.02
2018-09-19T03:06:31.042Z,100350.68
2018-09-19T03:08:59.307Z,100347.69
2018-09-19T03:11:28.440Z,100341.95
2018-09-19T03:13:56.841Z,100349.34
2018-09-19T03:16:24.911Z,100338.05
2018-09-19T03:18:53.600Z,100336.31
2018-09-19T03:21:21.671Z,100341.05
2018-09-19T03:23:49.762Z,100339.70
2018-09-19T03:26:19.251Z,100342.28
2018-09-19T03:28:49.312Z,100334.06
2018-09-19T03:31:17.599Z,100332.31
2018-09-19T03:33:45.716Z,100337.11
2018-09-19T03:36:13.796Z,100331.93
2018-09-19T03:38:42.827Z,100339.69
2018-09-19T03:41:12.289Z,100335.39
2018-09-19T03:43:40.489Z,100327.13
2018-09-19T03:46:08.647Z,100334.02
2018-09-19T03:48:37.397Z,100334.06
2018-09-19T03:51:07.126Z,100331.04
2018-09-19T03:53:35.350Z,100337.89
2018-09-19T03:56:03.606Z,100333.91
2018-09-19T03:58:32.055Z,100333.50
2018-09-19T04:01:00.167Z,100340.49
2018-09-19T04:03:28.302Z,100343.84
2018-09-19T04:05:56.633Z,100348.66
2018-09-19T04:08:25.789Z,100353.73
2018-09-19T04:10:54.209Z,100356.78
2018-09-19T04:13:22.686Z,100358.19
2018-09-19T04:15:50.850Z,100358.06
2018-09-19T04:18:20.371Z,100355.86
2018-09-19T04:20:48.660Z,100356.78
2018-09-19T04:23:17.909Z,100369.64
2018-09-19T04:25:46.242Z,100368.30
2018-09-19T04:28:14.996Z,100374.91
2018-09-19T04:30:43.912Z,100377.33
2018-09-19T04:33:12.085Z,100378.31
2018-09-19T04:35:41.087Z,100379.88
2018-09-19T04:38:09.403Z,100375.11
2018-09-19T04:40:37.683Z,100387.67
2018-09-19T04:43:05.903Z,100389.41
2018-09-19T04:45:34.152Z,100391.11
2018-09-19T04:48:02.406Z,100391.03
2018-09-19T04:50:31.549Z,100392.33
2018-09-19T04:53:01.021Z,100391.29
2018-09-19T04:55:29.225Z,100405.54
2018-09-19T04:57:57.453Z,100408.98
2018-09-19T05:00:25.853Z,100411.23
2018-09-19T05:02:55.116Z,100409.01
2018-09-19T05:05:26.023Z,100413.87
2018-09-19T05:07:55.124Z,100414.57
2018-09-19T05:10:23.856Z,100405.84
2018-09-19T05:12:54.022Z,100420.27
2018-09-19T05:15:23.547Z,100413.33
2018-09-19T05:17:54.474Z,100418.88
2018-09-19T05:20:22.738Z,100423.02
2018-09-19T05:22:50.916Z,100417.62
2018-09-19T05:25:19.025Z,100425.61
2018-09-19T05:27:48.923Z,100424.22
2018-09-19T05:30:17.372Z,100427.04
2018-09-19T05:32:45.476Z,100433.19
2018-09-19T05:35:13.788Z,100435.05
2018-09-19T05:37:46.524Z,100433.09
2018-09-19T05:40:23.965Z,100425.52
2018-09-19T05:42:53.053Z,100431.27
2018-09-19T05:45:23.950Z,100433.14
2018-09-19T05:47:52.276Z,100437.16
2018-09-19T05:50:21.069Z,100429.09
2018-09-19T05:52:49.631Z,100435.61
2018-09-19T05:55:17.878Z,100443.16
2018-09-19T05:57:46.065Z,100443.94
2018-09-19T06:00:14.542Z,100444.27
2018-09-19T06:02:43.649Z,100451.22
2018-09-19T06:05:11.772Z,100452.31
2018-09-19T06:07:40.031Z,100453.28
2018-09-19T06:10:09.298Z,100453.48
2018-09-19T06:12:37.718Z,100452.49
2018-09-19T06:15:06.496Z,100450.31
2018-09-19T06:17:34.813Z,100444.05
2018-09-19T06:20:04.530Z,100447.67
2018-09-19T06:22:33.090Z,100451.02
2018-09-19T06:25:04.126Z,100447.83
2018-09-19T06:27:32.903Z,100447.42
2018-09-19T06:30:01.032Z,100450.57
2018-09-19T06:32:29.376Z,100458.28
2018-09-19T06:34:57.715Z,100460.13
2018-09-19T06:37:25.979Z,100456.56
2018-09-19T06:39:54.467Z,100460.98
2018-09-19T06:42:22.635Z,100460.22
2018-09-19T06:44:51.342Z,100458.36
2018-09-19T06:47:21.500Z,100466.29
2018-09-19T06:49:49.704Z,100464.78
2018-09-19T06:52:18.190Z,100460.77
2018-09-19T06:54:46.467Z,100466.83
2018-09-19T06:57:16.227Z,100467.66
2018-09-19T06:59:45.055Z,100462.05
2018-09-19T07:02:13.167Z,100462.68
2018-09-19T07:04:41.286Z,100470.63
2018-09-19T07:07:09.524Z,100472.77
2018-09-19T07:09:39.173Z,100471.84
2018-09-19T07:12:07.492Z,100477.91
2018-09-19T07:14:38.526Z,100474.97
2018-09-19T07:17:06.662Z,100472.38
2018-09-19T07:19:37.186Z,100470.73
2018-09-19T07:22:07.703Z,100469.50
2018-09-19T07:24:36.453Z,100472.99
2018-09-19T07:27:04.580Z,100463.57
2018-09-19T07:29:32.698Z,100463.56
2018-09-19T07:32:00.827Z,100477.87
2018-09-19T07:34:29.042Z,100479.22
2018-09-19T07:36:57.364Z,100477.53
2018-09-19T07:39:25.578Z,100477.17
2018-09-19T07:41:53.810Z,100478.05
2018-09-19T07:44:22.020Z,100488.03
2018-09-19T07:46:50.260Z,100490.23
2018-09-19T07:49:18.503Z,100494.48
2018-09-19T07:51:46.648Z,100492.38
2018-09-19T07:54:14.846Z,100494.54
2018-09-19T07:56:47.002Z,100494.11
2018-09-19T07:59:16.378Z,100503.20
2018-09-19T08:01:45.609Z,100508.41
2018-09-19T08:04:13.854Z,100514.48
2018-09-19T08:06:42.141Z,100517.94
2018-09-19T08:09:10.818Z,100520.97
2018-09-19T08:11:39.041Z,100520.97
2018-09-19T08:14:07.245Z,100532.66
2018-09-19T08:16:37.544Z,100524.45
2018-09-19T08:19:06.671Z,100523.58
2018-09-19T08:21:35.458Z,100517.50
2018-09-19T08:24:03.919Z,100520.97
2018-09-19T08:26:32.246Z,100522.66
2018-09-19T08:29:00.822Z,100522.16
2018-09-19T08:31:29.022Z,100528.63
2018-09-19T08:33:57.187Z,100541.30
2018-09-19T08:36:25.471Z,100534.38
2018-09-19T08:38:53.683Z,100529.93
2018-09-19T08:41:28.356Z,100528.66
2018-09-19T08:43:58.265Z,100526.88
2018-09-19T08:46:26.458Z,100518.22
2018-09-19T08:48:54.715Z,100523.28
2018-09-19T08:51:22.837Z,100518.53
2018-09-19T08:53:50.922Z,100524.48
2018-09-19T08:56:19.336Z,100521.92
2018-09-19T08:58:47.820Z,100524.03
2018-09-19T09:01:16.438Z,100524.58
2018-09-19T09:03:50.063Z,100524.03
2018-09-19T09:06:18.232Z,100530.00
2018-09-19T09:08:50.310Z,100536.10
2018-09-19T09:11:19.851Z,100526.13
2018-09-19T09:13:48.330Z,100518.75
2018-09-19T09:16:16.962Z,100516.05
2018-09-19T09:18:45.097Z,100512.29
2018-09-19T09:21:13.260Z,100515.37
2018-09-19T09:23:41.798Z,100518.05
2018-09-19T09:26:09.958Z,100525.41
2018-09-19T09:28:38.155Z,100528.31
2018-09-19T09:31:07.188Z,100525.47
2018-09-19T09:33:35.366Z,100520.94
2018-09-19T09:36:03.503Z,100521.40
2018-09-19T09:38:31.725Z,100532.37
2018-09-19T09:40:59.983Z,100518.86
2018-09-19T09:43:28.162Z,100514.25
2018-09-19T09:45:57.180Z,100509.88
2018-09-19T09:48:25.328Z,100520.52
2018-09-19T09:50:53.475Z,100532.16
2018-09-19T09:53:21.733Z,100522.58
2018-09-19T09:55:50.080Z,100526.39
2018-09-19T09:58:30.942Z,100518.50
2018-09-19T10:01:15.861Z,100514.44
2018-09-19T10:03:44.300Z,100521.32
2018-09-19T10:06:12.738Z,100515.63
2018-09-19T10:08:40.839Z,100525.69
2018-09-19T10:11:09.231Z,100529.63
2018-09-19T10:13:37.546Z,100529.52
2018-09-19T10:16:06.321Z,100524.93
2018-09-19T10:18:34.558Z,100520.17
2018-09-19T10:21:03.571Z,100508.53
2018-09-19T10:23:32.045Z,100516.09
2018-09-19T10:26:00.402Z,100518.28
2018-09-19T10:28:29.116Z,100518.19
2018-09-19T10:30:57.315Z,100522.52
2018-09-19T10:33:25.535Z,100508.48
2018-09-19T10:35:53.731Z,100510.54
2018-09-19T10:38:25.283Z,100511.52
2018-09-19T10:40:54.100Z,100519.55
2018-09-19T10:43:22.507Z,100506.98
2018-09-19T10:45:50.715Z,100513.37
2018-09-19T10:48:19.032Z,100504.05
2018-09-19T10:50:47.360Z,100506.98
2018-09-19T10:53:15.668Z,100507.48
2018-09-19T10:55:44.172Z,100506.23
2018-09-19T10:58:12.615Z,100504.15
2018-09-19T11:00:40.809Z,100505.84
2018-09-19T11:03:08.931Z,100494.27
2018-09-19T11:05:37.479Z,100493.42
2018-09-19T11:08:08.214Z,100485.66
2018-09-19T11:10:37.478Z,100483.25
2018-09-19T11:13:05.760Z,100476.86
2018-09-19T11:15:34.137Z,100482.71
2018-09-19T11:18:02.528Z,100467.84
2018-09-19T11:20:30.694Z,100472.58
2018-09-19T11:22:58.812Z,100468.14
2018-09-19T11:25:26.903Z,100455.96
2018-09-19T11:27:55.371Z,100456.30
2018-09-19T11:30:24.538Z,100452.77
2018-09-19T11:32:53.562Z,100446.87
2018-09-19T11:35:21.783Z,100456.69
2018-09-19T11:37:49.976Z,100447.92
2018-09-19T11:40:18.162Z,100440.30
2018-09-19T11:42:46.632Z,100433.88
2018-09-19T11:45:15.991Z,100430.08
2018-09-19T11:47:44.401Z,100430.17
2018-09-19T11:50:12.714Z,100427.55
2018-09-19T11:52:40.948Z,100443.34
2018-09-19T11:55:10.978Z,100431.45
2018-09-19T11:57:42.065Z,100437.05
2018-09-19T12:00:11.063Z,100425.66
2018-09-19T12:02:39.297Z,100434.36
2018-09-19T12:05:09.014Z,100419.41
2018-09-19T12:07:37.735Z,100416.68
2018-09-19T12:10:05.963Z,100413.99
2018-09-19T12:12:34.183Z,100405.73
2018-09-19T12:15:02.343Z,100426.56
2018-09-19T12:17:32.730Z,100412.23
2018-09-19T12:20:01.407Z,100419.06
2018-09-19T12:22:29.633Z,100400.76
2018-09-19T12:24:59.072Z,100399.08
2018-09-19T12:27:27.413Z,100404.13
2018-09-19T12:29:56.202Z,100382.08
2018-09-19T12:32:24.678Z,100392.78
2018-09-19T12:34:52.847Z,100389.13
2018-09-19T12:37:21.070Z,100383.34
2018-09-19T12:39:49.686Z,100378.61
2018-09-19T12:42:17.853Z,100368.05
2018-09-19T12:44:46.239Z,100367.33
2018-09-19T12:47:28.367Z,100370.50
2018-09-19T12:50:03.834Z,100360.05
2018-09-19T12:52:35.416Z,100362.50
2018-09-19T12:55:05.162Z,100364.14
2018-09-19T12:57:33.535Z,100364.70
2018-09-19T13:00:01.853Z,100355.91
2018-09-19T13:02:30.102Z,100352.18
2018-09-19T13:04:59.996Z,100340.19
2018-09-19T13:07:28.733Z,100353.51
2018-09-19T13:09:57.148Z,100334.88
2018-09-19T13:12:26.386Z,100356.24
2018-09-19T13:14:57.132Z,100338.09
2018-09-19T13:19:45.967Z,100335.67
2018-09-19T13:22:15.125Z,100330.87
2018-09-19T13:24:43.499Z,100332.86
2018-09-19T13:27:13.159Z,100341.81
2018-09-19T13:29:42.365Z,100324.02
2018-09-19T13:32:13.457Z,100342.80
2018-09-19T13:34:41.580Z,100333.42
2018-09-19T13:37:10.908Z,100352.56
2018-09-19T13:39:39.009Z,100342.72
2018-09-19T13:42:08.170Z,100334.20
2018-09-19T13:44:36.296Z,100316.81
2018-09-19T13:47:05.084Z,100320.41
2018-09-19T13:49:56.223Z,100339.72
2018-09-19T13:52:24.323Z,100331.11
2018-09-19T13:54:54.745Z,100323.67
2018-09-19T13:57:23.088Z,100338.48
2018-09-19T13:59:51.285Z,100309.44
2018-09-19T14:02:20.383Z,100309.48
2018-09-19T14:04:49.453Z,100306.95
2018-09-19T14:07:17.708Z,100315.25
2018-09-19T14:09:45.988Z,100299.74
2018-09-19T14:12:18.595Z,100300.97
2018-09-19T14:14:47.476Z,100296.38
2018-09-19T14:17:23.755Z,100325.18
2018-09-19T14:19:58.132Z,100311.75
2018-09-19T14:22:27.802Z,100289.70
2018-09-19T14:24:56.075Z,100295.78
2018-09-19T14:27:24.296Z,100297.45
2018-09-19T14:29:52.475Z,100289.31
2018-09-19T14:32:21.040Z,100288.39
2018-09-19T14:34:49.750Z,100302.36
2018-09-19T14:37:18.106Z,100307.41
2018-09-19T14:39:46.272Z,100294.27
2018-09-19T14:42:14.522Z,100283.61
2018-09-19T14:44:43.104Z,100278.78
2018-09-19T14:47:13.015Z,100285.70
2018-09-19T14:49:41.417Z,100286.39
2018-09-19T14:52:09.907Z,100271.60
2018-09-19T14:54:39.471Z,100285.16
2018-09-19T14:57:08.962Z,100280.84
2018-09-19T14:59:37.163Z,100277.17
2018-09-19T15:02:05.424Z,100272.09
2018-09-19T15:04:34.836Z,100273.95
2018-09-19T15:07:03.275Z,100275.47
2018-09-19T15:09:33.664Z,100273.07
2018-09-19T15:12:03.070Z,100268.52
2018-09-19T15:14:31.207Z,100273.05
2018-09-19T15:16:59.426Z,100273.80
2018-09-19T15:19:28.342Z,100261.66
2018-09-19T15:21:56.988Z,100268.34
2018-09-19T15:24:25.392Z,100276.48
2018-09-19T15:26:53.615Z,100283.03
2018-09-19T15:29:22.918Z,100271.92
2018-09-19T15:31:51.130Z,100284.91
2018-09-19T15:34:19.286Z,100263.30
2018-09-19T15:36:47.474Z,100294.20
2018-09-19T15:39:15.905Z,100274.90
2018-09-19T15:41:44.072Z,100268.42
2018-09-19T15:44:12.531Z,100261.81
2018-09-19T15:46:40.731Z,100256.95
2018-09-19T15:49:09.221Z,100262.36
2018-09-19T15:51:37.809Z,100260.59
2018-09-19T15:54:07.420Z,100264.91
2018-09-19T15:56:36.686Z,100264.76
2018-09-19T15:59:04.828Z,100263.73
2018-09-19T16:01:32.999Z,100275.78
2018-09-19T16:04:01.141Z,100263.40
2018-09-19T16:06:29.422Z,100255.75
2018-09-19T16:08:57.922Z,100259.21
2018-09-19T16:11:26.106Z,100272.33
2018-09-19T16:13:54.215Z,100260.80
2018-09-19T16:16:22.367Z,100261.05
2018-09-19T16:18:50.503Z,100276.88
2018-09-19T16:21:18.618Z,100275.30
2018-09-19T16:23:46.755Z,100271.52
2018-09-19T16:26:14.869Z,100288.25
2018-09-19T16:28:43.103Z,100285.14
2018-09-19T16:31:11.300Z,100278.60
2018-09-19T16:33:39.903Z,100273.91
2018-09-19T16:36:09.171Z,100271.36
2018-09-19T16:38:37.329Z,100284.06
2018-09-19T16:41:05.628Z,100285.07
2018-09-19T16:43:33.823Z,100285.69
2018-09-19T16:46:01.919Z,100289.67
2018-09-19T16:48:30.195Z,100293.46
2018-09-19T16:50:59.577Z,100291.06
2018-09-19T16:53:27.830Z,100289.27
2018-09-19T16:55:56.051Z,100279.78
2018-09-19T16:58:24.187Z,100281.89
2018-09-19T17:00:52.308Z,100289.22
2018-09-19T17:03:20.431Z,100285.20
2018-09-19T17:05:48.934Z,100283.91
2018-09-19T17:08:16.999Z,100285.59
2018-09-19T17:10:45.341Z,100290.65
2018-09-19T17:13:13.544Z,100287.91
2018-09-19T17:15:41.722Z,100291.50
2018-09-19T17:18:10.133Z,100289.06
2018-09-19T17:20:39.400Z,100287.71
2018-09-19T17:23:07.515Z,100285.97
2018-09-19T17:25:36.220Z,100288.00
2018-09-19T17:28:04.493Z,100296.44
2018-09-19T17:30:32.747Z,100295.89
2018-09-19T17:33:00.914Z,100295.59
2018-09-19T17:35:29.095Z,100302.18
2018-09-19T17:38:00.028Z,100305.13
2018-09-19T17:40:29.756Z,100302.78
2018-09-19T17:42:57.987Z,100310.34
2018-09-19T17:45:26.408Z,100303.81
2018-09-19T17:48:00.869Z,100305.80
2018-09-19T17:50:29.939Z,100308.42
2018-09-19T17:52:59.840Z,100309.61
2018-09-19T17:55:29.094Z,100307.91
2018-09-19T17:57:57.339Z,100311.00
2018-09-19T18:00:25.444Z,100318.67
2018-09-19T18:02:57.002Z,100321.48
2018-09-19T18:05:26.325Z,100323.89
2018-09-19T18:07:54.857Z,100325.97
2018-09-19T18:10:24.787Z,100326.78
2018-09-19T18:12:53.648Z,100329.80
2018-09-19T18:15:21.885Z,100325.37
2018-09-19T18:17:50.190Z,100328.64
2018-09-19T18:20:18.372Z,100336.25
2018-09-19T18:22:46.519Z,100334.85
2018-09-19T18:25:14.999Z,100339.90
2018-09-19T18:27:45.857Z,100331.59
2018-09-19T18:30:14.084Z,100332.07
2018-09-19T18:32:42.405Z,100333.50
2018-09-19T18:35:10.792Z,100341.00
2018-09-19T18:37:39.525Z,100343.73
2018-09-19T18:40:07.657Z,100348.47
2018-09-19T18:42:35.776Z,100347.31
2018-09-19T18:45:04.089Z,100343.06
2018-09-19T18:47:32.259Z,100352.71
2018-09-19T18:50:01.570Z,100345.29
2018-09-19T18:52:30.385Z,100361.50
2018-09-19T18:54:58.838Z,100352.61
2018-09-19T18:57:28.257Z,100355.97
2018-09-19T18:59:57.950Z,100364.25
2018-09-19T19:02:26.131Z,100363.34
2018-09-19T19:04:54.475Z,100375.33
2018-09-19T19:07:22.725Z,100372.43
2018-09-19T19:09:50.971Z,100376.55
2018-09-19T19:12:19.599Z,100378.98
2018-09-19T19:14:50.218Z,100374.50
2018-09-19T19:17:18.362Z,100378.44
2018-09-19T19:19:46.971Z,100379.02
2018-09-19T19:22:15.154Z,100378.53
2018-09-19T19:24:43.292Z,100376.95
2018-09-19T19:27:11.452Z,100378.50
2018-09-19T19:29:41.093Z,100375.67
2018-09-19T19:32:11.118Z,100380.14
2018-09-19T19:34:40.535Z,100385.86
2018-09-19T19:42:04.720Z,100383.23
2018-09-19T19:44:32.877Z,100387.09
2018-09-19T19:47:01.026Z,100388.03
2018-09-19T19:49:30.170Z,100389.82
2018-09-19T19:51:58.271Z,100387.29
2018-09-19T19:54:28.878Z,100390.90
2018-09-19T19:56:57.103Z,100399.23
2018-09-19T19:59:26.726Z,100393.09
2018-09-19T20:01:54.935Z,100392.34
2018-09-19T20:04:23.312Z,100393.77
2018-09-19T20:06:52.291Z,100397.46
2018-09-19T20:09:20.448Z,100397.82
2018-09-19T20:11:49.340Z,100401.56
2018-09-19T20:14:17.778Z,100399.55
2018-09-19T20:16:46.903Z,100402.44
2018-09-19T20:19:15.164Z,100403.45
2018-09-19T20:21:44.456Z,100410.55
2018-09-19T20:24:12.765Z,100410.91
2018-09-19T20:26:43.373Z,100411.88
2018-09-19T20:29:11.511Z,100407.08
2018-09-19T20:31:42.943Z,100411.66
2018-09-19T20:34:11.117Z,100416.69
2018-09-19T20:41:34.268Z,100419.73
2018-09-19T20:44:02.544Z,100420.63
2018-09-19T20:46:31.645Z,100420.28
2018-09-19T20:49:01.452Z,100417.89
2018-09-19T20:51:29.867Z,100420.91
2018-09-19T20:53:57.968Z,100420.09
2018-09-19T20:56:28.051Z,100418.66
2018-09-19T20:58:57.324Z,100425.65
2018-09-19T21:01:25.467Z,100429.41
2018-09-19T21:03:53.600Z,100427.46
2018-09-19T21:06:21.719Z,100428.23
2018-09-19T21:08:49.879Z,100429.59
2018-09-19T21:11:17.985Z,100428.84
2018-09-19T21:13:46.096Z,100437.39
2018-09-19T21:16:14.195Z,100435.95
2018-09-19T21:18:42.290Z,100439.04
2018-09-19T21:21:10.892Z,100437.76
2018-09-19T21:23:39.059Z,100439.56
2018-09-19T21:26:07.187Z,100436.11
2018-09-19T21:28:35.331Z,100440.87
2018-09-19T21:31:03.776Z,100449.30
2018-09-19T21:33:32.765Z,100453.23
2018-09-19T21:36:01.248Z,100450.28
2018-09-19T21:38:31.077Z,100455.98
2018-09-19T21:41:00.730Z,100463.06
2018-09-19T21:43:28.842Z,100462.06
2018-09-19T21:45:57.099Z,100460.75
2018-09-19T21:48:26.819Z,100455.80
2018-09-19T21:50:54.972Z,100459.69
2018-09-19T21:53:23.221Z,100460.27
2018-09-19T21:55:51.341Z,100466.59
2018-09-19T21:58:19.475Z,100466.20
2018-09-19T22:00:53.067Z,100461.93
2018-09-19T22:03:21.185Z,100466.53
2018-09-19T22:05:49.319Z,100463.38
2018-09-19T22:08:18.666Z,100465.66
2018-09-19T22:10:49.111Z,100466.89
2018-09-19T22:13:18.843Z,100470.73
2018-09-19T22:15:47.096Z,100468.71
2018-09-19T22:18:16.741Z,100469.55
2018-09-19T22:20:46.324Z,100464.89
2018-09-19T22:23:16.867Z,100471.75
2018-09-19T22:25:45.656Z,100468.82
2018-09-19T22:28:14.992Z,100464.86
2018-09-19T22:30:43.377Z,100472.62
2018-09-19T22:33:11.534Z,100470.79
2018-09-19T22:35:41.451Z,100471.53
2018-09-19T22:38:10.769Z,100469.38
2018-09-19T22:40:39.043Z,100475.88
2018-09-19T22:43:07.379Z,100469.91
2018-09-19T22:45:36.251Z,100470.33
2018-09-19T22:48:05.099Z,100474.36
2018-09-19T22:50:33.272Z,100464.92
2018-09-19T22:53:07.469Z,100460.63
2018-09-19T22:55:36.938Z,100466.84
2018-09-19T22:58:05.483Z,100459.05
2018-09-19T23:00:33.812Z,100461.00
2018-09-19T23:03:02.234Z,100456.77
2018-09-19T23:05:30.334Z,100463.23
2018-09-19T23:07:58.962Z,100455.40
2018-09-19T23:10:27.055Z,100460.23
2018-09-19T23:27:40.575Z,100469.23
2018-09-19T23:34:14.814Z,100463.03
2018-09-19T23:37:08.330Z,100459.14
